createdAt,value
2022-08-18T00:02:30.327Z,13.13
2022-08-18T00:06:33.951Z,12.75
2022-08-18T00:10:36.696Z,11.32
2022-08-18T00:14:39.782Z,9.80
2022-08-18T00:18:43.352Z,13.52
2022-08-18T00:22:49.427Z,17.50
2022-08-18T00:26:52.951Z,11.40
2022-08-18T00:30:56.086Z,10.85
2022-08-18T00:35:07.855Z,14.50
2022-08-18T00:39:10.739Z,11.25
2022-08-18T00:43:19.299Z,12.43
2022-08-18T00:47:41.301Z,12.40
2022-08-18T00:51:51.806Z,11.63
2022-08-18T00:55:56.658Z,15.82
2022-08-18T01:00:11.791Z,12.90
2022-08-18T01:04:35.925Z,13.90
2022-08-18T01:08:41.195Z,10.25
2022-08-18T01:12:50.941Z,13.93
2022-08-18T01:17:12.372Z,15.45
2022-08-18T01:21:43.258Z,15.45
2022-08-18T01:26:04.140Z,11.32
2022-08-18T01:30:10.531Z,18.13
2022-08-18T01:38:19.171Z,14.93
2022-08-18T01:42:22.440Z,14.27
2022-08-18T01:46:26.010Z,13.13
2022-08-18T01:50:30.354Z,12.55
2022-08-18T01:54:33.804Z,14.65
2022-08-18T01:58:37.898Z,18.00
2022-08-18T02:02:42.047Z,12.27
2022-08-18T02:06:47.779Z,11.75
2022-08-18T02:10:50.809Z,22.58
2022-08-18T02:14:53.652Z,16.17
2022-08-18T02:18:56.858Z,14.02
2022-08-18T02:23:02.038Z,14.20
2022-08-18T02:27:05.605Z,15.38
2022-08-18T02:31:11.766Z,16.05
2022-08-18T02:35:14.774Z,13.13
2022-08-18T02:39:18.159Z,14.23
2022-08-18T02:43:20.974Z,19.63
2022-08-18T02:47:24.585Z,14.02
2022-08-18T02:51:27.917Z,16.35
2022-08-18T02:55:31.122Z,18.98
2022-08-18T02:59:34.118Z,13.38
2022-08-18T03:03:37.476Z,12.80
2022-08-18T03:07:40.493Z,16.92
2022-08-18T03:11:44.901Z,15.90
2022-08-18T03:15:51.176Z,13.05
2022-08-18T03:19:57.761Z,14.07
2022-08-18T03:24:02.847Z,13.13
2022-08-18T03:28:07.062Z,13.98
2022-08-18T03:32:10.821Z,13.27
2022-08-18T03:36:17.308Z,14.35
2022-08-18T03:44:23.799Z,14.38
2022-08-18T03:48:26.753Z,14.57
2022-08-18T03:52:30.979Z,11.68
2022-08-18T03:56:38.405Z,13.40
2022-08-18T04:00:42.056Z,19.02
2022-08-18T04:04:44.909Z,13.70
2022-08-18T04:08:50.538Z,17.52
2022-08-18T04:12:53.375Z,14.20
2022-08-18T04:16:57.108Z,13.60
2022-08-18T04:21:07.762Z,13.13
2022-08-18T04:25:10.609Z,17.40
2022-08-18T04:29:18.895Z,14.88
2022-08-18T04:33:21.642Z,12.95
2022-08-18T04:37:24.540Z,14.00
2022-08-18T04:41:30.695Z,12.52
2022-08-18T04:49:38.327Z,15.65
2022-08-18T04:53:46.438Z,14.95
2022-08-18T04:57:49.802Z,14.30
2022-08-18T05:01:54.369Z,14.05
2022-08-18T05:06:03.731Z,14.05
2022-08-18T05:10:31.653Z,15.88
2022-08-18T05:14:46.164Z,11.02
2022-08-18T05:18:57.810Z,15.90
2022-08-18T05:23:04.864Z,12.25
2022-08-18T05:27:17.449Z,15.40
2022-08-18T05:31:33.201Z,18.08
2022-08-18T05:35:52.160Z,14.15
2022-08-18T05:40:10.844Z,12.48
2022-08-18T05:44:27.192Z,14.18
2022-08-18T05:48:43.149Z,12.93
2022-08-18T05:52:57.925Z,13.35
2022-08-18T05:57:08.095Z,12.38
2022-08-18T06:01:27.565Z,20.60
2022-08-18T06:05:45.068Z,13.73
2022-08-18T06:09:54.470Z,16.65
2022-08-18T06:13:59.901Z,11.57
2022-08-18T06:18:30.991Z,14.07
2022-08-18T06:22:56.420Z,18.10
2022-08-18T06:27:20.325Z,13.07
2022-08-18T06:31:50.338Z,14.60
2022-08-18T06:36:03.286Z,17.77
2022-08-18T06:40:07.178Z,25.17
2022-08-18T06:44:32.092Z,12.57
2022-08-18T06:48:48.267Z,11.90
2022-08-18T06:56:58.023Z,13.48
2022-08-18T07:01:05.395Z,13.35
2022-08-18T07:05:15.781Z,16.27
2022-08-18T07:09:24.952Z,16.52
2022-08-18T07:13:31.605Z,14.75
2022-08-18T07:17:43.689Z,13.55
2022-08-18T07:22:01.294Z,15.95
2022-08-18T07:26:16.645Z,16.02
2022-08-18T07:30:19.678Z,15.20
2022-08-18T07:34:38.659Z,14.75
2022-08-18T07:39:10.237Z,15.80
2022-08-18T07:43:17.439Z,12.52
2022-08-18T07:47:29.511Z,13.57
2022-08-18T07:51:47.361Z,15.43
2022-08-18T07:55:58.126Z,21.60
2022-08-18T08:00:18.749Z,13.25
2022-08-18T08:04:53.613Z,13.05
2022-08-18T08:09:29.955Z,15.45
2022-08-18T08:13:54.642Z,12.73
2022-08-18T08:18:11.025Z,12.63
2022-08-18T08:22:34.416Z,19.98
2022-08-18T08:27:09.448Z,16.63
2022-08-18T08:31:37.260Z,17.48
2022-08-18T08:35:51.067Z,19.85
2022-08-18T08:40:02.021Z,13.27
2022-08-18T08:44:22.587Z,19.30
2022-08-18T08:48:29.328Z,19.60
2022-08-18T08:53:03.241Z,14.65
2022-08-18T08:57:07.701Z,17.00
2022-08-18T09:01:37.903Z,16.65
2022-08-18T09:06:01.330Z,20.60
2022-08-18T09:10:25.504Z,20.85
2022-08-18T09:15:05.927Z,17.10
2022-08-18T09:19:45.172Z,15.38
2022-08-18T09:24:06.465Z,10.88
2022-08-18T09:28:35.804Z,10.48
2022-08-18T09:32:58.888Z,8.27
2022-08-18T09:37:27.786Z,6.10
2022-08-18T09:41:49.081Z,9.00
2022-08-18T09:45:59.762Z,10.02
2022-08-18T09:50:04.011Z,7.32
2022-08-18T09:54:21.163Z,7.53
2022-08-18T09:58:25.682Z,6.93
2022-08-18T10:02:37.246Z,12.35
2022-08-18T10:06:48.381Z,12.25
2022-08-18T10:11:01.608Z,7.80
2022-08-18T10:15:41.554Z,11.07
2022-08-18T10:20:28.882Z,7.30
2022-08-18T10:25:19.822Z,9.07
2022-08-18T10:29:30.132Z,9.43
2022-08-18T10:34:17.226Z,10.85
2022-08-18T10:38:55.126Z,13.50
2022-08-18T10:43:46.048Z,9.48
2022-08-18T10:47:45.119Z,8.85
2022-08-18T10:52:07.695Z,8.30
2022-08-18T10:56:27.457Z,4.68
2022-08-18T11:01:01.021Z,6.22
2022-08-18T11:05:11.167Z,7.07
2022-08-18T11:09:27.096Z,5.25
2022-08-18T11:13:48.318Z,5.93
2022-08-18T11:18:03.635Z,6.45
2022-08-18T11:27:58.156Z,7.32
2022-08-18T11:32:30.583Z,10.63
2022-08-18T11:36:40.563Z,8.82
2022-08-18T11:41:12.000Z,5.38
2022-08-18T11:45:23.496Z,5.13
2022-08-18T11:49:33.766Z,7.78
2022-08-18T11:53:57.996Z,9.07
2022-08-18T11:58:03.714Z,8.98
2022-08-18T12:02:20.306Z,8.02
2022-08-18T12:06:30.695Z,11.32
2022-08-18T12:10:34.167Z,9.05
2022-08-18T12:15:02.968Z,8.32
2022-08-18T12:19:15.954Z,8.30
2022-08-18T12:23:22.824Z,8.60
2022-08-18T12:27:31.943Z,11.43
2022-08-18T12:31:42.348Z,9.30
2022-08-18T12:35:53.925Z,9.43
2022-08-18T12:40:00.958Z,10.13
2022-08-18T12:44:04.151Z,9.30
2022-08-18T12:48:13.086Z,11.40
2022-08-18T12:52:17.278Z,9.13
2022-08-18T12:56:24.770Z,9.10
2022-08-18T13:00:31.327Z,7.35
2022-08-18T13:04:35.562Z,11.73
2022-08-18T13:08:47.830Z,9.63
2022-08-18T13:12:52.998Z,8.55
2022-08-18T13:16:56.418Z,10.48
2022-08-18T13:21:00.285Z,9.65
2022-08-18T13:25:05.735Z,8.05
2022-08-18T13:29:10.150Z,10.73
2022-08-18T13:33:34.896Z,9.18
2022-08-18T13:37:36.907Z,12.38
2022-08-18T13:41:42.397Z,9.30
2022-08-18T13:45:53.439Z,9.20
2022-08-18T13:50:00.258Z,10.23
2022-08-18T13:54:30.052Z,10.40
2022-08-18T13:58:28.477Z,8.57
2022-08-18T14:02:31.441Z,11.35
2022-08-18T14:06:34.942Z,10.68
2022-08-18T14:10:38.705Z,9.50
2022-08-18T14:14:41.711Z,11.52
2022-08-18T14:18:45.779Z,9.77
2022-08-18T14:23:10.741Z,10.50
2022-08-18T14:27:13.985Z,11.18
2022-08-18T14:31:20.577Z,9.57
2022-08-18T14:35:33.947Z,11.95
2022-08-18T14:39:50.440Z,14.43
2022-08-18T14:44:13.042Z,9.35
2022-08-18T14:48:21.685Z,14.27
2022-08-18T14:52:25.539Z,15.88
2022-08-18T14:56:33.486Z,14.90
2022-08-18T15:00:53.616Z,12.45
2022-08-18T15:04:58.022Z,13.25
2022-08-18T15:09:04.294Z,11.13
2022-08-18T15:13:08.519Z,13.45
2022-08-18T15:17:13.449Z,14.93
2022-08-18T15:21:39.067Z,14.00
2022-08-18T15:25:45.267Z,12.07
2022-08-18T15:33:54.766Z,14.10
2022-08-18T15:38:00.901Z,12.75
2022-08-18T15:42:11.453Z,9.13
2022-08-18T15:46:16.799Z,12.88
2022-08-18T15:50:25.634Z,16.80
2022-08-18T15:54:28.957Z,10.85
2022-08-18T15:58:33.035Z,12.65
2022-08-18T16:02:39.017Z,11.30
2022-08-18T16:06:45.226Z,12.85
2022-08-18T16:10:49.886Z,12.95
2022-08-18T16:15:01.274Z,14.82
2022-08-18T16:19:06.551Z,13.02
2022-08-18T16:23:10.899Z,15.20
2022-08-18T16:27:14.002Z,15.50
2022-08-18T16:31:17.127Z,10.48
2022-08-18T16:35:21.652Z,12.40
2022-08-18T16:39:24.550Z,17.23
2022-08-18T16:43:27.497Z,16.27
2022-08-18T16:47:39.022Z,17.45
2022-08-18T16:51:46.081Z,14.02
2022-08-18T16:55:52.195Z,13.30
2022-08-18T17:00:17.313Z,17.33
2022-08-18T17:04:33.688Z,18.60
2022-08-18T17:08:38.110Z,11.73
2022-08-18T17:12:44.070Z,13.95
2022-08-18T17:16:49.059Z,14.23
2022-08-18T17:20:52.481Z,15.60
2022-08-18T17:25:03.168Z,12.55
2022-08-18T17:29:10.580Z,12.27
2022-08-18T17:33:31.134Z,17.23
2022-08-18T17:37:37.617Z,18.55
2022-08-18T17:42:00.547Z,10.73
2022-08-18T17:46:29.295Z,15.23
2022-08-18T17:51:15.480Z,19.40
2022-08-18T17:55:43.430Z,12.73
2022-08-18T18:00:11.594Z,14.85
2022-08-18T18:04:14.906Z,15.52
2022-08-18T18:08:20.556Z,15.55
2022-08-18T18:12:26.495Z,16.20
2022-08-18T18:16:37.952Z,14.23
2022-08-18T18:20:44.244Z,14.45
2022-08-18T18:24:54.808Z,13.17
2022-08-18T18:29:33.396Z,18.30
2022-08-18T18:33:39.002Z,23.65
2022-08-18T18:37:59.780Z,18.45
2022-08-18T18:42:19.434Z,22.33
2022-08-18T18:46:45.636Z,19.23
2022-08-18T18:51:14.077Z,18.40
2022-08-18T18:55:39.647Z,16.38
2022-08-18T18:59:49.177Z,18.40
2022-08-18T19:04:12.653Z,17.23
2022-08-18T19:08:36.001Z,19.83
2022-08-18T19:12:52.961Z,22.38
2022-08-18T19:17:21.336Z,21.73
2022-08-18T19:22:02.704Z,16.13
2022-08-18T19:25:54.278Z,15.05
2022-08-18T19:30:01.494Z,19.80
2022-08-18T19:34:11.422Z,15.25
2022-08-18T19:38:56.257Z,17.10
2022-08-18T19:43:06.435Z,13.68
2022-08-18T19:47:16.806Z,20.23
2022-08-18T19:51:35.567Z,16.60
2022-08-18T19:55:54.066Z,16.83
2022-08-18T20:00:15.900Z,21.95
2022-08-18T20:04:43.677Z,19.02
2022-08-18T20:09:09.277Z,18.27
2022-08-18T20:13:36.219Z,20.00
2022-08-18T20:17:54.381Z,26.77
2022-08-18T20:22:06.818Z,15.88
2022-08-18T20:32:36.458Z,11.80
2022-08-18T20:42:45.296Z,10.43
2022-08-18T21:03:02.269Z,17.05
2022-08-18T21:07:11.981Z,9.13
2022-08-18T21:11:34.349Z,7.47
2022-08-18T21:15:38.983Z,10.00
2022-08-18T21:19:43.441Z,7.55
2022-08-18T21:23:53.780Z,8.48
2022-08-18T21:27:57.318Z,12.02
2022-08-18T21:32:14.778Z,10.63
2022-08-18T21:36:20.335Z,12.68
2022-08-18T21:40:34.686Z,12.18
2022-08-18T21:44:44.899Z,15.02
2022-08-18T21:48:51.114Z,11.32
2022-08-18T21:53:01.351Z,11.68
2022-08-18T21:57:24.456Z,13.52
2022-08-18T22:01:31.748Z,18.13
2022-08-18T22:05:58.874Z,14.20
2022-08-18T22:10:44.990Z,13.23
2022-08-18T22:14:54.472Z,19.50
2022-08-18T22:19:20.325Z,14.85
2022-08-18T22:23:55.777Z,13.73
2022-08-18T22:28:00.525Z,16.98
2022-08-18T22:32:04.055Z,14.40
2022-08-18T22:36:07.215Z,11.43
2022-08-18T22:40:13.981Z,10.95
2022-08-18T22:44:16.856Z,11.48
2022-08-18T22:48:20.094Z,12.43
2022-08-18T22:52:31.390Z,13.55
2022-08-18T22:56:35.792Z,17.58
2022-08-18T23:04:45.898Z,12.98
2022-08-18T23:08:55.068Z,17.27
2022-08-18T23:13:04.118Z,18.40
2022-08-18T23:17:07.862Z,14.23
2022-08-18T23:21:10.746Z,14.95
2022-08-18T23:25:33.624Z,15.05
2022-08-18T23:29:36.695Z,15.40
2022-08-18T23:33:41.341Z,20.15
2022-08-18T23:37:44.136Z,16.27
2022-08-18T23:41:46.890Z,14.85
2022-08-18T23:45:52.134Z,22.52
2022-08-18T23:49:54.921Z,19.42
2022-08-18T23:54:00.334Z,20.55
2022-08-18T23:58:04.030Z,20.30
